Flight Track Log - Related Links

Times and Time Zones

All times are in EST time to prevent confusion due to time zone crossing. See the AFL150 flight status page for this flight to view local times or setup timezone preferences in your user account.

Time Position Orientation Groundspeed Altitude Reporting Facility
EST Latitude Longitude Course Direction KTS MPH feet Rate Location/Type
Fri 06:20:00 PM 24.3434 -82.3471 28° Northeast  Level FlightAware Approximate
Fri 06:21:00 PM 24.4479 -82.2861 28° Northeast  Level FlightAware Approximate
Fri 06:22:00 PM 24.5524 -82.2250 28° Northeast  Level FlightAware Approximate
Fri 06:23:00 PM 24.5807 -82.1053 82° East  Level FlightAware Approximate
Fri 06:24:00 PM 24.5967 -81.9763 82° East  Level FlightAware Approximate
Fri 06:25:00 PM 24.6115 -81.8471 83° East  Level FlightAware Approximate
Fri 06:26:00 PM 24.6264 -81.7179 83° East  Level FlightAware Approximate
Fri 06:27:00 PM 24.6416 -81.5887 83° East  Level FlightAware Approximate
Fri 06:28:00 PM 24.6567 -81.4595 83° East  Level FlightAware Approximate
Fri 06:29:00 PM 24.6717 -81.3303 83° East  Level FlightAware Approximate
Fri 06:30:00 PM 24.6866 -81.2010 83° East  Level FlightAware Approximate
Fri 06:31:00 PM 24.6895 -81.0853 189° South  Level FlightAware Approximate
Fri 06:32:00 PM 24.5727 -81.1065 189° South  Level FlightAware Approximate
Fri 06:33:00 PM 24.4550 -81.1167 180° South  Level FlightAware Approximate
Fri 06:34:00 PM 24.3385 -81.1390 190° South  Level FlightAware Approximate
Fri 06:35:00 PM 24.2220 -81.1623 190° South  Level FlightAware Approximate
Fri 06:36:00 PM 24.1055 -81.1856 190° South  Level FlightAware Approximate
Fri 06:37:00 PM 23.9938 -81.2228 222° Southwest  Level FlightAware Approximate
Fri 06:38:00 PM 23.9088 -81.3128 228° Southwest  Level FlightAware Approximate
Fri 06:39:00 PM 23.8281 -81.4075 225° Southwest  Level FlightAware Approximate
Fri 06:40:00 PM 23.7447 -81.4994 225° Southwest  Level FlightAware Approximate
Fri 06:41:00 PM 23.6613 -81.5912 225° Southwest  Level FlightAware Approximate
Fri 06:42:00 PM 23.5779 -81.6829 225° Southwest  Level FlightAware Approximate
Fri 06:43:00 PM 23.4967 -81.7767 231° Southwest  Level FlightAware Approximate
Fri 06:44:00 PM 23.4217 -81.8766 231° Southwest  Level FlightAware Approximate
Fri 06:45:00 PM 23.3432 -81.9732 228° Southwest  Level FlightAware Approximate
Fri 06:46:00 PM 23.2644 -82.0693 226° Southwest  Level FlightAware Approximate
Fri 06:47:00 PM 23.1827 -82.1626 226° Southwest  Level FlightAware Approximate
Fri 06:48:00 PM 23.0941 -82.2451 241° Southwest  Level FlightAware Approximate
Fri 06:49:00 PM 23.0211 -82.3456 223° Southwest  Level FlightAware Approximate
Fri 06:50:00 PM 22.9891 -82.4091 223° Southwest  Level Estimated
Fri 06:51:00 PM 22.9891 -82.4091 223° Southwest  Level Estimated
Fri 06:52:00 PM 22.9891 -82.4091 223° Southwest  Level Estimated
Fri 06:53:00 PM 22.9891 -82.4091 223° Southwest  Level Estimated
Fri 06:54:00 PM 22.9891 -82.4091 223° Southwest  Level Estimated
Fri 06:55:00 PM 22.9891 -82.4091 223° Southwest  Level Estimated
Fri 06:56:00 PM 22.9891 -82.4091 223° Southwest  Level Estimated

Login

Don't have an account? Register now (free) for customized features, flight alerts, and more!